Time;durP1;ratioP1;P1;durP2;ratioP2;P2;SDS_P1;SDS_P2;PMS_P1;PMS_P2;Temp;Humidity;BMP_temperature;BMP_pressure;BME280_temperature;BME280_humidity;BME280_pressure;Samples;Min_cycle;Max_cycle;Signal;HPM_P1;HPM_P2
2023/08/28 00:00:32;;;;;;;1.85;0.98;;;;;;;;;;5283181;28;20031;-77
2023/08/28 00:03:03;;;;;;;1.52;0.80;;;;;;;;;;5283817;28;20020;-76
2023/08/28 00:05:35;;;;;;;1.83;0.77;;;;;;;;;;5282381;28;20013;-77
2023/08/28 00:08:06;;;;;;;1.45;0.80;;;;;;;;;;5283499;28;20120;-76
2023/08/28 00:10:39;;;;;;;2.65;0.70;;;;;;;;;;5282548;28;20141;-77
2023/08/28 00:13:10;;;;;;;2.60;0.93;;;;;;;;;;5283219;28;20456;-77
2023/08/28 00:15:41;;;;;;;2.72;0.90;;;;;;;;;;5282896;28;20023;-77
2023/08/28 00:18:13;;;;;;;2.00;0.77;;;;;;;;;;5282514;28;20082;-76
2023/08/28 00:20:45;;;;;;;2.45;0.90;;;;;;;;;;5282711;28;20020;-77
2023/08/28 00:23:16;;;;;;;1.90;0.90;;;;;;;;;;5283158;28;20017;-76
2023/08/28 00:25:48;;;;;;;2.53;0.90;;;;;;;;;;5281952;28;20490;-77
2023/08/28 00:28:19;;;;;;;3.15;0.90;;;;;;;;;;5282900;28;20012;-77
2023/08/28 00:30:50;;;;;;;1.83;0.90;;;;;;;;;;5282512;28;20078;-76
2023/08/28 00:33:21;;;;;;;1.50;0.90;;;;;;;;;;5282709;28;20535;-77
2023/08/28 00:35:52;;;;;;;1.90;0.88;;;;;;;;;;5282429;28;20021;-76
2023/08/28 00:38:23;;;;;;;2.45;0.98;;;;;;;;;;5282860;28;20490;-77
2023/08/28 00:40:55;;;;;;;2.33;0.90;;;;;;;;;;5281937;28;20091;-77
2023/08/28 00:43:26;;;;;;;2.22;0.93;;;;;;;;;;5282597;28;20047;-77
2023/08/28 00:45:57;;;;;;;3.05;1.05;;;;;;;;;;5281634;28;20031;-76
2023/08/28 00:48:29;;;;;;;2.47;0.77;;;;;;;;;;5282494;28;20337;-76
2023/08/28 00:51:00;;;;;;;2.47;1.00;;;;;;;;;;5282438;28;20032;-76
2023/08/28 00:53:32;;;;;;;4.20;1.10;;;;;;;;;;5281168;28;20524;-77
2023/08/28 00:56:03;;;;;;;2.55;1.27;;;;;;;;;;5282930;28;20431;-76
2023/08/28 00:58:34;;;;;;;2.63;1.40;;;;;;;;;;5282277;28;20023;-77
2023/08/28 01:01:06;;;;;;;2.83;1.00;;;;;;;;;;5281747;28;20020;-76
2023/08/28 01:03:37;;;;;;;2.85;1.10;;;;;;;;;;5281881;28;20369;-76
2023/08/28 01:06:11;;;;;;;1.75;1.00;;;;;;;;;;5282221;28;20475;-76
2023/08/28 01:08:54;;;;;;;2.28;1.13;;;;;;;;;;5281169;28;20036;-76
2023/08/28 01:11:36;;;;;;;2.47;1.42;;;;;;;;;;5282146;28;20019;-77
2023/08/28 01:14:11;;;;;;;2.17;1.33;;;;;;;;;;5281614;28;20142;-76
2023/08/28 01:16:43;;;;;;;2.40;1.65;;;;;;;;;;5281563;28;20016;-76
2023/08/28 01:19:31;;;;;;;2.25;1.20;;;;;;;;;;5282556;28;20017;-76
2023/08/28 01:22:05;;;;;;;3.20;1.17;;;;;;;;;;5281494;28;20020;-76
2023/08/28 01:24:44;;;;;;;2.40;1.60;;;;;;;;;;5281072;28;20474;-76
2023/08/28 01:27:16;;;;;;;2.78;1.35;;;;;;;;;;5282206;28;20383;-76
2023/08/28 01:30:06;;;;;;;2.17;1.50;;;;;;;;;;5280844;28;20043;-76
2023/08/28 01:32:37;;;;;;;3.17;1.30;;;;;;;;;;5281547;28;20008;-76
2023/08/28 01:35:13;;;;;;;4.63;1.85;;;;;;;;;;5281176;28;20055;-77
2023/08/28 01:38:00;;;;;;;3.90;1.70;;;;;;;;;;5281326;28;20015;-76
2023/08/28 01:40:36;;;;;;;2.38;1.30;;;;;;;;;;5281561;28;20024;-77
2023/08/28 01:43:08;;;;;;;3.53;1.25;;;;;;;;;;5281406;28;20070;-76
2023/08/28 01:45:39;;;;;;;3.40;1.88;;;;;;;;;;5281306;28;20027;-78
2023/08/28 01:48:10;;;;;;;3.38;1.90;;;;;;;;;;5281959;28;20471;-76
2023/08/28 01:50:42;;;;;;;2.47;1.63;;;;;;;;;;5280443;28;20040;-76
2023/08/28 01:53:13;;;;;;;3.13;1.85;;;;;;;;;;5281961;28;20486;-76
2023/08/28 01:56:03;;;;;;;2.10;1.65;;;;;;;;;;5281274;28;20059;-75
2023/08/28 01:58:42;;;;;;;4.80;1.77;;;;;;;;;;5280912;28;20036;-75
2023/08/28 02:01:14;;;;;;;2.60;1.63;;;;;;;;;;5281754;28;20020;-75
2023/08/28 02:03:46;;;;;;;2.83;1.75;;;;;;;;;;5280497;28;20017;-76
2023/08/28 02:06:17;;;;;;;3.03;2.13;;;;;;;;;;5281667;28;20029;-75
2023/08/28 02:08:49;;;;;;;3.05;2.13;;;;;;;;;;5281115;28;20151;-75
2023/08/28 02:11:20;;;;;;;2.45;1.83;;;;;;;;;;5281192;28;20062;-77
2023/08/28 02:13:51;;;;;;;4.65;2.42;;;;;;;;;;5281001;28;20063;-76
2023/08/28 02:16:22;;;;;;;2.55;2.10;;;;;;;;;;5281624;28;20551;-76
2023/08/28 02:18:53;;;;;;;5.20;2.28;;;;;;;;;;5280152;28;20025;-77
2023/08/28 02:21:25;;;;;;;4.55;2.13;;;;;;;;;;5281378;28;20406;-77
2023/08/28 02:23:56;;;;;;;3.97;1.80;;;;;;;;;;5281452;28;20048;-77
2023/08/28 02:26:27;;;;;;;4.35;2.20;;;;;;;;;;5281533;28;20267;-77
2023/08/28 02:28:58;;;;;;;2.80;2.42;;;;;;;;;;5281123;28;20040;-76
2023/08/28 02:31:29;;;;;;;3.05;1.92;;;;;;;;;;5280105;28;20104;-77
2023/08/28 02:34:01;;;;;;;3.25;2.33;;;;;;;;;;5281670;28;20028;-76
2023/08/28 02:36:32;;;;;;;5.32;1.70;;;;;;;;;;5284699;28;20017;-77
2023/08/28 02:39:04;;;;;;;2.65;2.25;;;;;;;;;;5284699;28;20017;-77
2023/08/28 02:41:35;;;;;;;3.72;2.72;;;;;;;;;;5284695;28;20020;-77
2023/08/28 02:44:06;;;;;;;3.28;2.28;;;;;;;;;;5285104;28;20020;-76
2023/08/28 02:46:37;;;;;;;3.97;3.00;;;;;;;;;;5283880;28;20029;-75
2023/08/28 02:49:09;;;;;;;4.30;2.28;;;;;;;;;;5285254;28;20028;-75
2023/08/28 02:51:40;;;;;;;4.93;2.65;;;;;;;;;;5284439;28;20017;-75
2023/08/28 02:54:12;;;;;;;5.47;2.78;;;;;;;;;;5284329;28;20016;-75
2023/08/28 02:56:43;;;;;;;3.63;2.90;;;;;;;;;;5283020;28;20043;-75
2023/08/28 02:59:14;;;;;;;3.83;2.70;;;;;;;;;;5285205;28;20025;-76
2023/08/28 03:01:45;;;;;;;2.78;2.33;;;;;;;;;;5282433;28;20039;-76
2023/08/28 03:04:16;;;;;;;5.03;2.35;;;;;;;;;;5284911;28;20417;-75
2023/08/28 03:06:48;;;;;;;3.53;2.53;;;;;;;;;;5283302;28;20051;-75
2023/08/28 03:09:19;;;;;;;3.03;2.72;;;;;;;;;;5284620;28;20036;-76
2023/08/28 03:11:50;;;;;;;3.88;2.95;;;;;;;;;;5284236;28;20017;-75
2023/08/28 03:14:21;;;;;;;4.53;2.90;;;;;;;;;;5283861;28;20023;-76
2023/08/28 03:16:52;;;;;;;4.60;2.67;;;;;;;;;;5284081;28;20023;-75
2023/08/28 03:19:24;;;;;;;3.65;2.28;;;;;;;;;;5284289;28;20020;-75
2023/08/28 03:21:55;;;;;;;3.08;2.80;;;;;;;;;;5283738;28;20027;-76
2023/08/28 03:24:26;;;;;;;4.30;2.90;;;;;;;;;;5284376;28;20024;-76
2023/08/28 03:26:57;;;;;;;3.90;3.03;;;;;;;;;;5284191;28;20013;-75
2023/08/28 03:29:28;;;;;;;7.00;3.00;;;;;;;;;;5283141;28;20028;-76
2023/08/28 03:32:00;;;;;;;4.85;3.03;;;;;;;;;;5283721;28;20391;-75
2023/08/28 03:34:31;;;;;;;5.70;3.15;;;;;;;;;;5283515;28;20028;-76
2023/08/28 03:37:03;;;;;;;4.20;3.50;;;;;;;;;;5283568;28;20371;-76
2023/08/28 03:39:34;;;;;;;4.22;3.45;;;;;;;;;;5283392;28;20095;-76
2023/08/28 03:42:05;;;;;;;3.55;3.05;;;;;;;;;;5283197;28;20066;-75
2023/08/28 03:44:36;;;;;;;4.40;3.22;;;;;;;;;;5283303;28;20379;-76
2023/08/28 03:47:08;;;;;;;5.57;3.28;;;;;;;;;;5283085;28;20008;-75
2023/08/28 03:49:39;;;;;;;3.83;3.47;;;;;;;;;;5282588;28;20115;-76
2023/08/28 03:52:10;;;;;;;5.95;3.50;;;;;;;;;;5284007;28;20104;-76
2023/08/28 03:54:41;;;;;;;4.68;3.33;;;;;;;;;;5283081;28;20017;-75
2023/08/28 03:57:12;;;;;;;4.53;3.58;;;;;;;;;;5282901;28;20537;-76
2023/08/28 03:59:43;;;;;;;5.72;4.10;;;;;;;;;;5283072;28;20020;-75
2023/08/28 04:02:15;;;;;;;4.90;4.30;;;;;;;;;;5283905;28;20100;-76
2023/08/28 04:04:46;;;;;;;4.22;3.22;;;;;;;;;;5282167;28;20038;-76
2023/08/28 04:07:24;;;;;;;5.70;3.88;;;;;;;;;;5283458;28;20499;-76
2023/08/28 04:09:55;;;;;;;4.15;3.17;;;;;;;;;;5282455;28;20119;-76
2023/08/28 04:12:26;;;;;;;6.00;4.40;;;;;;;;;;5283260;28;20042;-76
2023/08/28 04:14:58;;;;;;;5.30;3.58;;;;;;;;;;5283127;28;20468;-76
2023/08/28 04:17:30;;;;;;;6.97;4.13;;;;;;;;;;5282233;28;20100;-76
2023/08/28 04:20:12;;;;;;;4.80;4.15;;;;;;;;;;5283288;28;20024;-76
2023/08/28 04:22:44;;;;;;;4.63;4.10;;;;;;;;;;5282863;28;20488;-75
2023/08/28 04:25:15;;;;;;;4.93;4.38;;;;;;;;;;5282488;28;20044;-76
2023/08/28 04:27:46;;;;;;;5.43;4.18;;;;;;;;;;5282542;28;20023;-76
2023/08/28 04:30:17;;;;;;;5.70;3.78;;;;;;;;;;5282906;28;20056;-75
2023/08/28 04:32:48;;;;;;;4.22;3.80;;;;;;;;;;5281568;28;20024;-75
2023/08/28 04:35:20;;;;;;;4.28;3.88;;;;;;;;;;5283181;28;20537;-75
2023/08/28 04:37:51;;;;;;;5.90;4.32;;;;;;;;;;5282475;28;20038;-76
2023/08/28 04:40:22;;;;;;;4.63;3.65;;;;;;;;;;5282095;28;20016;-75
2023/08/28 04:42:54;;;;;;;4.97;4.07;;;;;;;;;;5282019;28;20016;-76
2023/08/28 04:45:25;;;;;;;4.22;3.78;;;;;;;;;;5281964;28;20024;-75
2023/08/28 04:47:56;;;;;;;4.65;3.55;;;;;;;;;;5282463;28;20020;-75
2023/08/28 04:50:28;;;;;;;4.43;4.03;;;;;;;;;;5282365;28;20032;-76
2023/08/28 04:52:59;;;;;;;5.85;4.22;;;;;;;;;;5281304;28;20016;-76
2023/08/28 04:55:30;;;;;;;4.50;4.05;;;;;;;;;;5281916;28;20394;-77
2023/08/28 04:58:01;;;;;;;5.10;4.63;;;;;;;;;;5282455;28;20031;-76
2023/08/28 05:00:34;;;;;;;6.90;3.60;;;;;;;;;;5281229;28;20012;-76
2023/08/28 05:03:05;;;;;;;5.55;3.78;;;;;;;;;;5282629;28;20043;-75
2023/08/28 05:05:36;;;;;;;4.50;3.42;;;;;;;;;;5281652;28;20100;-75
2023/08/28 05:08:08;;;;;;;4.30;3.90;;;;;;;;;;5281472;28;20028;-77
2023/08/28 05:10:39;;;;;;;3.90;3.15;;;;;;;;;;5281965;28;20514;-76
2023/08/28 05:13:11;;;;;;;5.45;4.32;;;;;;;;;;5281611;28;20021;-77
2023/08/28 05:15:42;;;;;;;4.82;3.78;;;;;;;;;;5281666;28;20348;-75
2023/08/28 05:18:14;;;;;;;3.73;3.40;;;;;;;;;;5282082;28;20020;-76
2023/08/28 05:20:45;;;;;;;5.93;3.70;;;;;;;;;;5280956;28;20354;-77
2023/08/28 05:23:16;;;;;;;4.57;3.33;;;;;;;;;;5281965;28;20028;-76
2023/08/28 05:25:47;;;;;;;5.28;3.78;;;;;;;;;;5281644;28;20023;-76
2023/08/28 05:28:19;;;;;;;4.07;3.67;;;;;;;;;;5281278;28;20051;-76
2023/08/28 05:30:50;;;;;;;4.22;3.70;;;;;;;;;;5281305;28;20487;-76
2023/08/28 05:33:21;;;;;;;4.18;3.88;;;;;;;;;;5282270;28;20091;-76
2023/08/28 05:35:52;;;;;;;3.90;3.35;;;;;;;;;;5280585;28;20017;-76
2023/08/28 05:38:24;;;;;;;3.75;3.45;;;;;;;;;;5281721;28;20524;-75
2023/08/28 05:40:55;;;;;;;5.43;3.80;;;;;;;;;;5281553;28;20021;-76
2023/08/28 05:43:26;;;;;;;4.32;3.92;;;;;;;;;;5280841;28;20383;-76
2023/08/28 05:45:57;;;;;;;5.40;3.67;;;;;;;;;;5281783;28;20025;-75
2023/08/28 05:48:28;;;;;;;5.10;3.33;;;;;;;;;;5280820;28;20016;-76
2023/08/28 05:51:00;;;;;;;4.35;3.63;;;;;;;;;;5281334;28;20028;-77
2023/08/28 05:53:32;;;;;;;5.05;3.35;;;;;;;;;;5281267;28;20376;-76
2023/08/28 05:56:03;;;;;;;4.85;3.75;;;;;;;;;;5280823;28;20032;-76
2023/08/28 05:58:34;;;;;;;4.50;4.05;;;;;;;;;;5281413;28;20483;-77
2023/08/28 06:01:05;;;;;;;4.47;3.97;;;;;;;;;;5281860;28;20021;-76
2023/08/28 06:03:37;;;;;;;4.65;4.25;;;;;;;;;;5280232;28;20266;-77
2023/08/28 06:06:09;;;;;;;4.10;3.40;;;;;;;;;;5281320;28;20502;-76
2023/08/28 06:08:41;;;;;;;6.88;4.68;;;;;;;;;;5280848;28;20050;-76
2023/08/28 06:11:12;;;;;;;4.47;3.95;;;;;;;;;;5284926;28;20025;-75
2023/08/28 06:13:43;;;;;;;4.13;3.72;;;;;;;;;;5285114;28;20025;-77
2023/08/28 06:16:14;;;;;;;4.25;3.85;;;;;;;;;;5285734;28;20031;-77
2023/08/28 06:18:45;;;;;;;4.75;4.35;;;;;;;;;;5284033;28;20013;-77
2023/08/28 06:21:17;;;;;;;4.47;4.07;;;;;;;;;;5284912;28;20020;-76
2023/08/28 06:23:48;;;;;;;5.57;4.57;;;;;;;;;;5284426;28;20910;-76
2023/08/28 06:26:19;;;;;;;4.75;4.25;;;;;;;;;;5285321;28;20025;-77
2023/08/28 06:28:50;;;;;;;11.73;5.20;;;;;;;;;;5284919;28;20037;-76
2023/08/28 06:31:21;;;;;;;5.20;4.43;;;;;;;;;;5281291;28;20017;-76
2023/08/28 06:33:53;;;;;;;6.65;4.72;;;;;;;;;;5284267;28;20016;-75
2023/08/28 06:36:24;;;;;;;5.95;4.97;;;;;;;;;;5284662;28;20042;-77
2023/08/28 06:38:55;;;;;;;5.07;4.65;;;;;;;;;;5284008;28;20015;-77
2023/08/28 06:41:26;;;;;;;5.72;4.55;;;;;;;;;;5284595;28;20024;-77
2023/08/28 06:43:57;;;;;;;5.40;4.80;;;;;;;;;;5284238;28;20032;-77
2023/08/28 06:46:29;;;;;;;5.60;5.13;;;;;;;;;;5283271;28;20475;-76
2023/08/28 06:49:00;;;;;;;6.85;5.03;;;;;;;;;;5284190;28;20509;-77
2023/08/28 06:51:31;;;;;;;5.43;4.93;;;;;;;;;;5284121;28;20016;-77
2023/08/28 06:54:02;;;;;;;5.10;4.60;;;;;;;;;;5283435;28;20419;-76
2023/08/28 06:56:33;;;;;;;5.03;4.22;;;;;;;;;;5282373;28;20040;-77
2023/08/28 06:59:05;;;;;;;6.45;4.18;;;;;;;;;;5282534;28;20107;-77
2023/08/28 07:01:36;;;;;;;5.70;4.10;;;;;;;;;;5284119;28;20025;-77
2023/08/28 07:04:07;;;;;;;4.20;3.75;;;;;;;;;;5283602;28;20017;-79
2023/08/28 07:06:38;;;;;;;4.28;3.42;;;;;;;;;;5282818;28;20495;-79
2023/08/28 07:09:09;;;;;;;5.47;3.97;;;;;;;;;;5284674;28;20044;-79
2023/08/28 07:11:41;;;;;;;5.38;3.63;;;;;;;;;;5284060;28;20446;-79
2023/08/28 07:14:12;;;;;;;6.25;3.97;;;;;;;;;;5284216;28;20017;-80
2023/08/28 07:16:44;;;;;;;5.65;3.85;;;;;;;;;;5284063;28;20021;-79
2023/08/28 07:19:15;;;;;;;4.15;3.75;;;;;;;;;;5284555;28;20055;-79
2023/08/28 07:21:46;;;;;;;5.63;4.45;;;;;;;;;;5281955;28;20055;-79
2023/08/28 07:24:17;;;;;;;4.80;4.30;;;;;;;;;;5284713;28;20410;-79
2023/08/28 07:26:48;;;;;;;7.28;4.07;;;;;;;;;;5283394;28;20306;-80
2023/08/28 07:29:20;;;;;;;5.20;4.40;;;;;;;;;;5284784;28;20031;-80
2023/08/28 07:31:51;;;;;;;4.47;4.07;;;;;;;;;;5284497;28;20321;-80
2023/08/28 07:34:22;;;;;;;4.47;3.70;;;;;;;;;;5284390;28;20024;-80
2023/08/28 07:36:53;;;;;;;4.03;3.63;;;;;;;;;;5284527;28;20023;-80
2023/08/28 07:39:24;;;;;;;3.60;3.30;;;;;;;;;;5281916;28;20078;-78
2023/08/28 07:41:58;;;;;;;3.70;2.83;;;;;;;;;;5289777;28;20528;-79
2023/08/28 07:44:30;;;;;;;5.68;2.80;;;;;;;;;;5288077;28;20020;-79
2023/08/28 07:47:02;;;;;;;6.70;3.08;;;;;;;;;;5290275;28;20096;-79
2023/08/28 07:49:33;;;;;;;4.88;2.65;;;;;;;;;;5289242;28;20044;-79
2023/08/28 07:52:04;;;;;;;6.88;2.42;;;;;;;;;;5289098;28;20352;-78
2023/08/28 07:54:36;;;;;;;4.80;3.05;;;;;;;;;;5286912;28;20036;-78
2023/08/28 07:57:08;;;;;;;2.85;2.60;;;;;;;;;;5288129;28;20031;-80
2023/08/28 07:59:39;;;;;;;3.88;2.90;;;;;;;;;;5288634;28;20088;-80
2023/08/28 08:02:12;;;;;;;5.38;3.20;;;;;;;;;;5291101;28;20017;-79
2023/08/28 08:04:43;;;;;;;6.05;3.47;;;;;;;;;;5286423;28;20364;-80
2023/08/28 08:07:14;;;;;;;3.57;2.80;;;;;;;;;;5286579;28;20045;-77
2023/08/28 08:09:46;;;;;;;3.67;2.92;;;;;;;;;;5289498;28;20364;-79
2023/08/28 08:12:17;;;;;;;3.45;3.15;;;;;;;;;;5299393;28;20018;-76
2023/08/28 08:14:48;;;;;;;3.97;2.83;;;;;;;;;;5290435;28;20381;-77
2023/08/28 08:17:19;;;;;;;4.20;3.30;;;;;;;;;;5289181;28;20274;-77
2023/08/28 08:19:50;;;;;;;3.63;3.20;;;;;;;;;;5284835;28;20826;-78
2023/08/28 08:22:22;;;;;;;4.28;3.22;;;;;;;;;;5286733;28;20016;-79
2023/08/28 08:24:53;;;;;;;3.78;3.40;;;;;;;;;;5285776;28;20471;-78
2023/08/28 08:27:25;;;;;;;3.05;2.65;;;;;;;;;;5291766;28;20046;-79
2023/08/28 08:29:56;;;;;;;2.33;2.13;;;;;;;;;;5296572;28;20033;-78
2023/08/28 08:32:27;;;;;;;1.98;1.42;;;;;;;;;;5287797;28;20016;-78
2023/08/28 08:34:59;;;;;;;2.83;1.57;;;;;;;;;;5294083;28;20032;-78
2023/08/28 08:37:31;;;;;;;3.63;2.63;;;;;;;;;;5286217;28;20328;-80
2023/08/28 08:40:03;;;;;;;4.93;2.78;;;;;;;;;;5284878;28;20103;-78
2023/08/28 08:42:34;;;;;;;4.00;2.83;;;;;;;;;;5282741;28;20024;-78
2023/08/28 08:45:06;;;;;;;2.60;2.40;;;;;;;;;;5283084;28;20525;-79
2023/08/28 08:47:39;;;;;;;3.28;2.58;;;;;;;;;;5282576;28;20023;-77
2023/08/28 08:50:12;;;;;;;3.75;2.55;;;;;;;;;;5282379;28;20371;-80
2023/08/28 08:52:43;;;;;;;3.42;1.80;;;;;;;;;;5283902;28;20310;-80
2023/08/28 08:55:29;;;;;;;3.20;2.10;;;;;;;;;;5282999;28;20020;-79
2023/08/28 08:58:02;;;;;;;3.05;2.25;;;;;;;;;;5283295;28;20066;-80
2023/08/28 09:00:38;;;;;;;2.65;1.23;;;;;;;;;;5282113;28;20016;-78
2023/08/28 09:03:10;;;;;;;1.90;1.33;;;;;;;;;;5282557;28;20033;-78
2023/08/28 09:05:41;;;;;;;2.78;1.20;;;;;;;;;;5281150;28;20021;-78
2023/08/28 09:08:13;;;;;;;2.55;1.00;;;;;;;;;;5282471;28;20040;-78
2023/08/28 09:10:45;;;;;;;1.40;0.80;;;;;;;;;;5281841;28;20132;-78
2023/08/28 09:13:19;;;;;;;3.58;1.10;;;;;;;;;;5281361;28;20058;-77
2023/08/28 09:15:50;;;;;;;1.10;0.82;;;;;;;;;;5281559;28;20020;-79
2023/08/28 09:18:25;;;;;;;2.57;0.90;;;;;;;;;;5282257;28;20019;-77
2023/08/28 09:21:06;;;;;;;2.45;0.77;;;;;;;;;;5280616;28;20281;-78
2023/08/28 09:23:41;;;;;;;1.70;0.80;;;;;;;;;;5281665;28;20410;-79
2023/08/28 09:26:16;;;;;;;1.52;0.80;;;;;;;;;;5281828;28;20020;-79
2023/08/28 09:29:13;;;;;;;1.25;0.57;;;;;;;;;;5281027;28;20483;-79
2023/08/28 09:31:44;;;;;;;3.67;0.68;;;;;;;;;;5280088;28;20429;-77
2023/08/28 09:34:17;;;;;;;2.37;0.60;;;;;;;;;;5281249;28;20016;-77
2023/08/28 09:36:48;;;;;;;1.92;0.60;;;;;;;;;;5281373;28;20274;-77
2023/08/28 09:39:19;;;;;;;1.60;0.50;;;;;;;;;;5282263;28;20023;-77
2023/08/28 09:41:50;;;;;;;1.00;0.50;;;;;;;;;;5280689;28;20286;-77
2023/08/28 09:44:26;;;;;;;1.25;0.60;;;;;;;;;;5281312;28;20629;-76
2023/08/28 09:46:57;;;;;;;1.45;0.50;;;;;;;;;;5281447;28;20430;-77
2023/08/28 09:49:28;;;;;;;1.25;0.50;;;;;;;;;;5280641;28;20068;-77
2023/08/28 09:52:00;;;;;;;2.10;0.43;;;;;;;;;;5281662;28;20100;-76
2023/08/28 09:54:31;;;;;;;1.65;0.43;;;;;;;;;;5280601;28;20028;-75
2023/08/28 09:57:13;;;;;;;1.05;0.50;;;;;;;;;;5281346;28;20020;-75
2023/08/28 09:59:44;;;;;;;1.13;0.60;;;;;;;;;;5281050;28;20027;-77
2023/08/28 10:02:19;;;;;;;1.47;0.60;;;;;;;;;;5281095;28;20016;-76
2023/08/28 10:04:52;;;;;;;1.08;0.40;;;;;;;;;;5280647;28;20278;-76
2023/08/28 10:07:26;;;;;;;0.82;0.30;;;;;;;;;;5281156;28;20325;-78
2023/08/28 10:09:58;;;;;;;0.80;0.30;;;;;;;;;;5280547;28;20116;-77
2023/08/28 10:12:30;;;;;;;2.15;0.30;;;;;;;;;;5281310;28;20082;-78
2023/08/28 10:15:03;;;;;;;0.80;0.40;;;;;;;;;;5281966;28;20017;-77
2023/08/28 10:17:35;;;;;;;1.60;0.47;;;;;;;;;;5280293;28;20063;-77
2023/08/28 10:20:09;;;;;;;2.65;0.60;;;;;;;;;;5281680;28;20052;-76
2023/08/28 10:22:41;;;;;;;0.60;0.38;;;;;;;;;;5279832;28;20107;-78
2023/08/28 10:25:13;;;;;;;0.82;0.28;;;;;;;;;;5281709;28;20020;-75
2023/08/28 10:27:45;;;;;;;1.00;0.30;;;;;;;;;;5280451;28;20123;-76
2023/08/28 10:30:16;;;;;;;1.10;0.30;;;;;;;;;;5280706;28;20089;-75
2023/08/28 10:32:49;;;;;;;1.33;0.30;;;;;;;;;;5280800;28;20024;-75
2023/08/28 10:35:21;;;;;;;0.65;0.20;;;;;;;;;;5281277;28;20107;-75
2023/08/28 10:37:52;;;;;;;0.88;0.30;;;;;;;;;;5279907;28;20017;-76
2023/08/28 10:40:23;;;;;;;2.10;0.30;;;;;;;;;;5281119;28;20013;-76
2023/08/28 10:42:55;;;;;;;1.25;0.20;;;;;;;;;;5280836;28;20029;-75
2023/08/28 10:45:26;;;;;;;0.80;0.25;;;;;;;;;;5280163;28;20424;-76
2023/08/28 10:47:57;;;;;;;1.05;0.45;;;;;;;;;;5280829;28;20025;-76
2023/08/28 10:50:35;;;;;;;1.48;0.50;;;;;;;;;;5280791;28;20074;-75
2023/08/28 10:53:07;;;;;;;1.50;0.50;;;;;;;;;;5280775;28;20379;-77
2023/08/28 10:55:38;;;;;;;1.33;0.40;;;;;;;;;;5282201;28;20073;-76
2023/08/28 10:58:09;;;;;;;3.13;0.50;;;;;;;;;;5284308;28;20426;-76
2023/08/28 11:00:40;;;;;;;0.90;0.40;;;;;;;;;;5284278;28;20029;-77
2023/08/28 11:03:15;;;;;;;1.70;0.40;;;;;;;;;;5284971;28;20024;-76
2023/08/28 11:05:46;;;;;;;1.20;0.40;;;;;;;;;;5283191;28;20024;-77
2023/08/28 11:08:17;;;;;;;1.13;0.40;;;;;;;;;;5284840;28;20058;-77
2023/08/28 11:11:08;;;;;;;1.40;0.40;;;;;;;;;;5284241;28;20487;-78
2023/08/28 11:13:39;;;;;;;0.95;0.30;;;;;;;;;;5276086;28;20747;-76
2023/08/28 11:16:11;;;;;;;0.60;0.30;;;;;;;;;;5272215;28;20037;-76
2023/08/28 11:18:42;;;;;;;0.70;0.30;;;;;;;;;;5260600;28;20651;-76
2023/08/28 11:21:14;;;;;;;1.10;0.30;;;;;;;;;;5260904;28;20263;-76
2023/08/28 11:23:45;;;;;;;1.08;0.30;;;;;;;;;;5277090;28;20305;-76
2023/08/28 11:26:16;;;;;;;0.65;0.20;;;;;;;;;;5282569;28;20020;-76
2023/08/28 11:28:48;;;;;;;0.93;0.22;;;;;;;;;;5281573;28;20354;-76
2023/08/28 11:31:19;;;;;;;1.58;0.50;;;;;;;;;;5283524;28;20060;-76
2023/08/28 11:33:52;;;;;;;1.07;0.30;;;;;;;;;;5282072;28;20012;-76
2023/08/28 11:36:23;;;;;;;2.50;0.52;;;;;;;;;;5284060;28;20349;-77
2023/08/28 11:38:55;;;;;;;1.35;0.60;;;;;;;;;;5282653;28;20170;-75
2023/08/28 11:41:26;;;;;;;1.55;0.68;;;;;;;;;;5281563;28;20092;-74
2023/08/28 11:43:58;;;;;;;1.35;0.60;;;;;;;;;;5282248;28;20099;-74
2023/08/28 11:46:29;;;;;;;1.70;0.50;;;;;;;;;;5282924;28;20479;-75
2023/08/28 11:49:05;;;;;;;1.27;0.60;;;;;;;;;;5283156;28;20055;-74
2023/08/28 11:51:37;;;;;;;2.72;0.55;;;;;;;;;;5283172;28;20021;-76
2023/08/28 11:54:08;;;;;;;2.15;0.60;;;;;;;;;;5283078;28;20031;-76
2023/08/28 11:56:41;;;;;;;3.17;0.60;;;;;;;;;;5283293;28;20082;-76
2023/08/28 11:59:12;;;;;;;1.30;0.50;;;;;;;;;;5283374;28;20342;-76
2023/08/28 12:01:45;;;;;;;1.55;0.50;;;;;;;;;;5282400;28;20154;-76
2023/08/28 12:04:21;;;;;;;2.35;0.50;;;;;;;;;;5283562;28;20355;-75
2023/08/28 12:06:52;;;;;;;1.10;0.40;;;;;;;;;;5281932;28;20621;-75
2023/08/28 12:09:24;;;;;;;1.85;0.40;;;;;;;;;;5282641;28;20103;-76
2023/08/28 12:11:55;;;;;;;1.38;0.40;;;;;;;;;;5282981;28;20024;-75
2023/08/28 12:14:27;;;;;;;1.70;0.65;;;;;;;;;;5283154;28;20013;-75
2023/08/28 12:16:59;;;;;;;1.30;0.65;;;;;;;;;;5282180;28;20031;-75
2023/08/28 12:19:30;;;;;;;1.13;0.40;;;;;;;;;;5282739;28;20031;-76
2023/08/28 12:22:05;;;;;;;2.33;0.50;;;;;;;;;;5282877;28;20012;-75
2023/08/28 12:24:43;;;;;;;2.05;0.73;;;;;;;;;;5281892;28;20070;-75
2023/08/28 12:27:16;;;;;;;1.05;0.30;;;;;;;;;;5283234;28;20364;-75
2023/08/28 12:29:48;;;;;;;1.25;0.30;;;;;;;;;;5281443;28;20142;-75
2023/08/28 12:32:20;;;;;;;3.05;0.40;;;;;;;;;;5283273;28;20032;-75
2023/08/28 12:34:51;;;;;;;2.20;0.40;;;;;;;;;;5282745;28;20025;-75
2023/08/28 12:37:24;;;;;;;2.25;0.50;;;;;;;;;;5282154;28;20021;-75
2023/08/28 12:39:56;;;;;;;1.52;0.40;;;;;;;;;;5282489;28;20028;-75
2023/08/28 12:42:27;;;;;;;1.73;0.50;;;;;;;;;;5282603;28;20020;-75
2023/08/28 12:44:58;;;;;;;0.95;0.47;;;;;;;;;;5281883;28;20286;-75
2023/08/28 12:47:29;;;;;;;2.73;0.50;;;;;;;;;;5282421;28;20020;-74
2023/08/28 12:50:00;;;;;;;1.47;0.60;;;;;;;;;;5282171;28;20326;-75
2023/08/28 12:52:31;;;;;;;1.40;0.50;;;;;;;;;;5281215;28;20277;-75
2023/08/28 12:55:04;;;;;;;1.50;0.73;;;;;;;;;;5282706;28;20270;-75
2023/08/28 12:57:36;;;;;;;1.00;0.50;;;;;;;;;;5281397;28;20035;-75
2023/08/28 13:00:07;;;;;;;2.43;0.57;;;;;;;;;;5282610;28;20016;-75
2023/08/28 13:02:38;;;;;;;1.52;0.57;;;;;;;;;;5281905;28;20294;-75
2023/08/28 13:05:11;;;;;;;2.10;0.60;;;;;;;;;;5281495;28;20020;-75
2023/08/28 13:07:42;;;;;;;1.50;0.80;;;;;;;;;;5281785;28;20123;-75
2023/08/28 13:10:14;;;;;;;1.77;0.67;;;;;;;;;;5282455;28;20116;-75
2023/08/28 13:12:45;;;;;;;1.35;0.60;;;;;;;;;;5281005;28;20263;-75
2023/08/28 13:15:16;;;;;;;1.10;0.60;;;;;;;;;;5282147;28;20079;-75
2023/08/28 13:17:47;;;;;;;3.15;0.63;;;;;;;;;;5281407;28;20044;-75
2023/08/28 13:20:20;;;;;;;3.17;0.60;;;;;;;;;;5281776;28;20440;-75
2023/08/28 13:22:51;;;;;;;2.78;0.65;;;;;;;;;;5281669;28;20043;-74
2023/08/28 13:25:22;;;;;;;2.17;0.60;;;;;;;;;;5281943;28;20020;-75
2023/08/28 13:27:53;;;;;;;2.30;0.50;;;;;;;;;;5281016;28;20358;-76
2023/08/28 13:30:25;;;;;;;1.20;0.50;;;;;;;;;;5281952;28;20030;-76
2023/08/28 13:32:58;;;;;;;1.77;0.40;;;;;;;;;;5281056;28;20013;-75
2023/08/28 13:35:33;;;;;;;2.05;0.55;;;;;;;;;;5281502;28;20263;-75
2023/08/28 13:38:04;;;;;;;0.98;0.30;;;;;;;;;;5281958;28;20021;-75
2023/08/28 13:40:36;;;;;;;2.60;0.30;;;;;;;;;;5280473;28;20024;-75
2023/08/28 13:43:07;;;;;;;2.23;0.20;;;;;;;;;;5281917;28;20020;-75
2023/08/28 13:45:38;;;;;;;1.40;0.32;;;;;;;;;;5281311;28;20278;-76
2023/08/28 13:48:09;;;;;;;2.70;0.30;;;;;;;;;;5281192;28;20031;-74
2023/08/28 13:50:42;;;;;;;1.27;0.20;;;;;;;;;;5281139;28;20031;-75
2023/08/28 13:53:14;;;;;;;1.08;0.20;;;;;;;;;;5280465;28;20083;-75
2023/08/28 13:55:46;;;;;;;1.67;0.22;;;;;;;;;;5280733;28;20021;-74
2023/08/28 13:58:21;;;;;;;4.63;0.60;;;;;;;;;;5280551;28;20080;-74
2023/08/28 14:00:56;;;;;;;1.52;0.40;;;;;;;;;;5280172;28;20020;-75
2023/08/28 14:03:28;;;;;;;1.27;0.30;;;;;;;;;;5281336;28;20025;-73
2023/08/28 14:06:00;;;;;;;0.90;0.40;;;;;;;;;;5281056;28;20430;-73
2023/08/28 14:08:32;;;;;;;0.98;0.40;;;;;;;;;;5280505;28;20478;-74
2023/08/28 14:11:04;;;;;;;1.88;0.30;;;;;;;;;;5281333;28;20036;-74
2023/08/28 14:13:36;;;;;;;0.50;0.20;;;;;;;;;;5280884;28;20020;-73
2023/08/28 14:16:07;;;;;;;0.82;0.25;;;;;;;;;;5280777;28;20028;-75
2023/08/28 14:18:38;;;;;;;2.28;0.30;;;;;;;;;;5281115;28;20456;-76
2023/08/28 14:21:10;;;;;;;1.17;0.30;;;;;;;;;;5265360;28;20021;-75
2023/08/28 14:23:41;;;;;;;1.33;0.50;;;;;;;;;;5277047;28;20052;-75
2023/08/28 14:26:13;;;;;;;1.00;0.30;;;;;;;;;;5280290;28;20271;-75
2023/08/28 14:28:44;;;;;;;1.73;0.50;;;;;;;;;;5279681;28;20371;-75
2023/08/28 14:31:15;;;;;;;0.80;0.40;;;;;;;;;;5282854;28;20024;-75
2023/08/28 14:33:46;;;;;;;2.93;0.50;;;;;;;;;;5283523;28;20013;-75
2023/08/28 14:36:18;;;;;;;1.20;0.40;;;;;;;;;;5283054;28;20826;-75
2023/08/28 14:38:49;;;;;;;1.55;0.50;;;;;;;;;;5283856;28;20278;-75
2023/08/28 14:41:20;;;;;;;1.77;0.50;;;;;;;;;;5283790;28;20082;-74
2023/08/28 14:43:51;;;;;;;1.05;0.20;;;;;;;;;;5282397;28;20279;-74
2023/08/28 14:46:23;;;;;;;1.10;0.20;;;;;;;;;;5285160;28;20464;-75
2023/08/28 14:48:54;;;;;;;1.30;0.30;;;;;;;;;;5283658;28;20024;-77
2023/08/28 14:51:26;;;;;;;1.13;0.20;;;;;;;;;;5283529;28;20032;-77
2023/08/28 14:53:59;;;;;;;0.80;0.40;;;;;;;;;;5285011;28;20422;-76
2023/08/28 14:56:30;;;;;;;0.93;0.43;;;;;;;;;;5284258;28;20544;-77
2023/08/28 14:59:02;;;;;;;1.40;0.57;;;;;;;;;;5284416;28;20016;-76
2023/08/28 15:01:33;;;;;;;2.00;0.50;;;;;;;;;;5284267;28;20020;-76
2023/08/28 15:04:05;;;;;;;1.75;0.70;;;;;;;;;;5284051;28;20027;-76
2023/08/28 15:06:36;;;;;;;1.50;0.98;;;;;;;;;;5283826;28;20564;-76
2023/08/28 15:09:07;;;;;;;2.83;0.80;;;;;;;;;;5284855;28;20020;-76
2023/08/28 15:11:39;;;;;;;1.40;0.77;;;;;;;;;;5283366;28;20374;-76